sensor_id;sensor_type;location;lat;lon;timestamp;P1;durP1;ratioP1;P2;durP2;ratioP2
35223;SDS011;21367;51.930;8.112;2023-12-22T00:03:17;36.80;;;4.90;;
35223;SDS011;21367;51.930;8.112;2023-12-22T00:08:20;36.05;;;4.15;;
35223;SDS011;21367;51.930;8.112;2023-12-22T00:13:24;51.53;;;5.45;;
35223;SDS011;21367;51.930;8.112;2023-12-22T00:18:30;25.40;;;3.80;;
35223;SDS011;21367;51.930;8.112;2023-12-22T00:23:34;42.28;;;3.95;;
35223;SDS011;21367;51.930;8.112;2023-12-22T00:28:37;36.53;;;4.22;;
35223;SDS011;21367;51.930;8.112;2023-12-22T00:33:44;35.63;;;3.97;;
35223;SDS011;21367;51.930;8.112;2023-12-22T00:38:49;33.33;;;3.40;;
35223;SDS011;21367;51.930;8.112;2023-12-22T00:43:53;41.25;;;3.63;;
35223;SDS011;21367;51.930;8.112;2023-12-22T00:48:59;47.55;;;3.75;;
35223;SDS011;21367;51.930;8.112;2023-12-22T00:54:03;39.95;;;3.67;;
35223;SDS011;21367;51.930;8.112;2023-12-22T00:59:06;30.58;;;3.03;;
35223;SDS011;21367;51.930;8.112;2023-12-22T01:04:13;28.88;;;4.28;;
35223;SDS011;21367;51.930;8.112;2023-12-22T01:09:16;37.45;;;3.80;;
35223;SDS011;21367;51.930;8.112;2023-12-22T01:14:20;41.33;;;3.50;;
35223;SDS011;21367;51.930;8.112;2023-12-22T01:19:26;36.65;;;4.18;;
35223;SDS011;21367;51.930;8.112;2023-12-22T01:24:30;29.75;;;4.63;;
35223;SDS011;21367;51.930;8.112;2023-12-22T01:29:33;28.17;;;3.40;;
35223;SDS011;21367;51.930;8.112;2023-12-22T01:34:39;37.05;;;4.75;;
35223;SDS011;21367;51.930;8.112;2023-12-22T01:39:43;22.40;;;3.15;;
35223;SDS011;21367;51.930;8.112;2023-12-22T01:44:47;36.70;;;4.72;;
35223;SDS011;21367;51.930;8.112;2023-12-22T01:49:53;34.78;;;2.95;;
35223;SDS011;21367;51.930;8.112;2023-12-22T02:00:00;30.92;;;2.97;;
35223;SDS011;21367;51.930;8.112;2023-12-22T02:05:14;37.30;;;3.60;;
35223;SDS011;21367;51.930;8.112;2023-12-22T02:10:18;29.95;;;3.50;;
35223;SDS011;21367;51.930;8.112;2023-12-22T02:15:21;30.17;;;3.22;;
35223;SDS011;21367;51.930;8.112;2023-12-22T02:20:28;41.08;;;3.55;;
35223;SDS011;21367;51.930;8.112;2023-12-22T02:25:34;32.13;;;3.03;;
35223;SDS011;21367;51.930;8.112;2023-12-22T02:30:39;21.17;;;2.70;;
35223;SDS011;21367;51.930;8.112;2023-12-22T02:35:49;34.10;;;3.58;;
35223;SDS011;21367;51.930;8.112;2023-12-22T02:40:57;39.00;;;3.38;;
35223;SDS011;21367;51.930;8.112;2023-12-22T02:46:02;29.42;;;3.03;;
35223;SDS011;21367;51.930;8.112;2023-12-22T02:51:06;25.67;;;3.00;;
35223;SDS011;21367;51.930;8.112;2023-12-22T02:56:12;20.60;;;2.90;;
35223;SDS011;21367;51.930;8.112;2023-12-22T03:01:16;27.40;;;2.50;;
35223;SDS011;21367;51.930;8.112;2023-12-22T03:06:19;37.15;;;3.80;;
35223;SDS011;21367;51.930;8.112;2023-12-22T03:11:25;38.45;;;3.22;;
35223;SDS011;21367;51.930;8.112;2023-12-22T03:16:29;39.60;;;3.45;;
35223;SDS011;21367;51.930;8.112;2023-12-22T03:21:33;28.50;;;3.22;;
35223;SDS011;21367;51.930;8.112;2023-12-22T03:26:39;41.60;;;3.90;;
35223;SDS011;21367;51.930;8.112;2023-12-22T03:31:42;40.10;;;3.33;;
35223;SDS011;21367;51.930;8.112;2023-12-22T03:36:46;28.00;;;2.63;;
35223;SDS011;21367;51.930;8.112;2023-12-22T03:41:53;23.55;;;2.50;;
35223;SDS011;21367;51.930;8.112;2023-12-22T03:46:57;18.58;;;2.22;;
35223;SDS011;21367;51.930;8.112;2023-12-22T03:52:00;16.25;;;1.58;;
35223;SDS011;21367;51.930;8.112;2023-12-22T03:57:07;12.13;;;1.40;;
35223;SDS011;21367;51.930;8.112;2023-12-22T04:02:10;21.70;;;1.15;;
35223;SDS011;21367;51.930;8.112;2023-12-22T04:07:14;5.40;;;1.23;;
35223;SDS011;21367;51.930;8.112;2023-12-22T04:12:20;17.88;;;1.33;;
35223;SDS011;21367;51.930;8.112;2023-12-22T04:17:24;11.05;;;1.13;;
35223;SDS011;21367;51.930;8.112;2023-12-22T04:22:27;15.15;;;1.20;;
35223;SDS011;21367;51.930;8.112;2023-12-22T04:27:33;17.35;;;1.77;;
35223;SDS011;21367;51.930;8.112;2023-12-22T04:32:37;5.13;;;1.10;;
35223;SDS011;21367;51.930;8.112;2023-12-22T04:37:41;19.05;;;1.52;;
35223;SDS011;21367;51.930;8.112;2023-12-22T04:42:47;17.27;;;1.38;;
35223;SDS011;21367;51.930;8.112;2023-12-22T04:47:51;6.78;;;1.27;;
35223;SDS011;21367;51.930;8.112;2023-12-22T04:52:55;10.15;;;2.00;;
35223;SDS011;21367;51.930;8.112;2023-12-22T04:58:01;15.77;;;1.30;;
35223;SDS011;21367;51.930;8.112;2023-12-22T05:08:08;13.73;;;1.27;;
35223;SDS011;21367;51.930;8.112;2023-12-22T05:13:14;12.52;;;1.02;;
35223;SDS011;21367;51.930;8.112;2023-12-22T05:18:18;19.40;;;1.60;;
35223;SDS011;21367;51.930;8.112;2023-12-22T05:23:21;16.85;;;1.48;;
35223;SDS011;21367;51.930;8.112;2023-12-22T05:28:27;13.05;;;1.50;;
35223;SDS011;21367;51.930;8.112;2023-12-22T05:33:31;18.45;;;2.10;;
35223;SDS011;21367;51.930;8.112;2023-12-22T05:38:36;10.15;;;1.65;;
35223;SDS011;21367;51.930;8.112;2023-12-22T05:43:42;12.27;;;1.50;;
35223;SDS011;21367;51.930;8.112;2023-12-22T05:48:46;15.27;;;1.48;;
35223;SDS011;21367;51.930;8.112;2023-12-22T05:53:50;22.92;;;1.70;;
35223;SDS011;21367;51.930;8.112;2023-12-22T05:58:57;15.73;;;1.30;;
35223;SDS011;21367;51.930;8.112;2023-12-22T06:04:00;25.67;;;2.05;;
35223;SDS011;21367;51.930;8.112;2023-12-22T06:09:04;19.67;;;2.15;;
35223;SDS011;21367;51.930;8.112;2023-12-22T06:14:11;19.00;;;1.67;;
35223;SDS011;21367;51.930;8.112;2023-12-22T06:19:15;31.05;;;3.08;;
35223;SDS011;21367;51.930;8.112;2023-12-22T06:24:18;25.30;;;2.45;;
35223;SDS011;21367;51.930;8.112;2023-12-22T06:29:24;27.23;;;2.05;;
35223;SDS011;21367;51.930;8.112;2023-12-22T06:34:28;25.45;;;2.90;;
35223;SDS011;21367;51.930;8.112;2023-12-22T06:39:31;24.40;;;1.90;;
35223;SDS011;21367;51.930;8.112;2023-12-22T06:44:37;14.55;;;2.25;;
35223;SDS011;21367;51.930;8.112;2023-12-22T06:49:41;23.30;;;2.45;;
35223;SDS011;21367;51.930;8.112;2023-12-22T06:54:45;20.85;;;2.35;;
35223;SDS011;21367;51.930;8.112;2023-12-22T06:59:51;26.25;;;3.20;;
35223;SDS011;21367;51.930;8.112;2023-12-22T07:10:25;27.60;;;2.22;;
35223;SDS011;21367;51.930;8.112;2023-12-22T07:15:31;34.70;;;2.90;;
35223;SDS011;21367;51.930;8.112;2023-12-22T07:20:35;28.05;;;2.88;;
35223;SDS011;21367;51.930;8.112;2023-12-22T07:25:39;27.75;;;3.15;;
35223;SDS011;21367;51.930;8.112;2023-12-22T07:30:46;30.67;;;2.30;;
35223;SDS011;21367;51.930;8.112;2023-12-22T07:35:49;15.70;;;2.55;;
35223;SDS011;21367;51.930;8.112;2023-12-22T07:40:53;25.00;;;2.47;;
35223;SDS011;21367;51.930;8.112;2023-12-22T07:45:59;23.88;;;3.38;;
35223;SDS011;21367;51.930;8.112;2023-12-22T07:51:03;33.03;;;3.00;;
35223;SDS011;21367;51.930;8.112;2023-12-22T07:56:07;24.80;;;2.45;;
35223;SDS011;21367;51.930;8.112;2023-12-22T08:01:13;24.77;;;2.60;;
35223;SDS011;21367;51.930;8.112;2023-12-22T08:06:18;22.05;;;2.83;;
35223;SDS011;21367;51.930;8.112;2023-12-22T08:11:21;29.02;;;3.05;;
35223;SDS011;21367;51.930;8.112;2023-12-22T08:16:29;21.08;;;3.25;;
35223;SDS011;21367;51.930;8.112;2023-12-22T08:21:33;29.77;;;3.10;;
35223;SDS011;21367;51.930;8.112;2023-12-22T08:26:37;24.00;;;2.40;;
35223;SDS011;21367;51.930;8.112;2023-12-22T08:31:43;16.00;;;2.28;;
35223;SDS011;21367;51.930;8.112;2023-12-22T08:36:46;12.80;;;1.55;;
35223;SDS011;21367;51.930;8.112;2023-12-22T08:41:50;16.73;;;1.85;;
35223;SDS011;21367;51.930;8.112;2023-12-22T08:46:56;20.05;;;0.95;;
35223;SDS011;21367;51.930;8.112;2023-12-22T08:52:00;11.55;;;0.70;;
35223;SDS011;21367;51.930;8.112;2023-12-22T08:57:04;5.32;;;0.70;;
35223;SDS011;21367;51.930;8.112;2023-12-22T09:02:10;13.50;;;1.20;;
35223;SDS011;21367;51.930;8.112;2023-12-22T09:07:14;9.73;;;0.95;;
35223;SDS011;21367;51.930;8.112;2023-12-22T09:12:17;7.63;;;1.05;;
35223;SDS011;21367;51.930;8.112;2023-12-22T09:17:25;7.50;;;1.08;;
35223;SDS011;21367;51.930;8.112;2023-12-22T09:22:29;10.38;;;1.33;;
35223;SDS011;21367;51.930;8.112;2023-12-22T09:27:33;7.57;;;1.02;;
35223;SDS011;21367;51.930;8.112;2023-12-22T09:32:39;12.18;;;1.42;;
35223;SDS011;21367;51.930;8.112;2023-12-22T09:42:46;10.05;;;1.48;;
35223;SDS011;21367;51.930;8.112;2023-12-22T09:47:52;13.15;;;1.63;;
35223;SDS011;21367;51.930;8.112;2023-12-22T09:52:59;8.13;;;1.30;;
35223;SDS011;21367;51.930;8.112;2023-12-22T09:58:05;14.82;;;2.65;;
35223;SDS011;21367;51.930;8.112;2023-12-22T10:03:14;11.07;;;1.95;;
35223;SDS011;21367;51.930;8.112;2023-12-22T10:08:19;10.30;;;1.42;;
35223;SDS011;21367;51.930;8.112;2023-12-22T10:13:24;9.77;;;1.55;;
35223;SDS011;21367;51.930;8.112;2023-12-22T10:18:31;14.80;;;1.88;;
35223;SDS011;21367;51.930;8.112;2023-12-22T10:28:38;18.38;;;2.35;;
35223;SDS011;21367;51.930;8.112;2023-12-22T10:33:45;20.63;;;2.13;;
35223;SDS011;21367;51.930;8.112;2023-12-22T10:38:48;20.50;;;1.60;;
35223;SDS011;21367;51.930;8.112;2023-12-22T10:43:52;8.02;;;0.95;;
35223;SDS011;21367;51.930;8.112;2023-12-22T10:48:59;10.13;;;1.27;;
35223;SDS011;21367;51.930;8.112;2023-12-22T10:54:04;20.05;;;1.60;;
35223;SDS011;21367;51.930;8.112;2023-12-22T10:59:08;15.65;;;2.10;;
35223;SDS011;21367;51.930;8.112;2023-12-22T11:04:17;17.00;;;1.92;;
35223;SDS011;21367;51.930;8.112;2023-12-22T11:09:23;14.75;;;1.67;;
35223;SDS011;21367;51.930;8.112;2023-12-22T11:14:30;15.65;;;1.90;;
35223;SDS011;21367;51.930;8.112;2023-12-22T11:19:41;14.90;;;1.80;;
35223;SDS011;21367;51.930;8.112;2023-12-22T11:24:46;11.27;;;1.30;;
35223;SDS011;21367;51.930;8.112;2023-12-22T11:29:50;8.27;;;1.38;;
35223;SDS011;21367;51.930;8.112;2023-12-22T11:34:56;7.18;;;1.30;;
35223;SDS011;21367;51.930;8.112;2023-12-22T11:40:03;8.73;;;1.23;;
35223;SDS011;21367;51.930;8.112;2023-12-22T11:45:08;6.10;;;0.90;;
35223;SDS011;21367;51.930;8.112;2023-12-22T11:50:29;8.93;;;1.27;;
35223;SDS011;21367;51.930;8.112;2023-12-22T12:01:03;7.63;;;0.90;;
35223;SDS011;21367;51.930;8.112;2023-12-22T12:06:22;5.72;;;0.90;;
35223;SDS011;21367;51.930;8.112;2023-12-22T12:17:15;4.22;;;1.02;;
35223;SDS011;21367;51.930;8.112;2023-12-22T12:22:23;3.90;;;0.68;;
35223;SDS011;21367;51.930;8.112;2023-12-22T12:27:27;3.83;;;0.68;;
35223;SDS011;21367;51.930;8.112;2023-12-22T12:32:35;0.57;;;0.38;;
35223;SDS011;21367;51.930;8.112;2023-12-22T12:37:42;3.92;;;0.50;;
35223;SDS011;21367;51.930;8.112;2023-12-22T12:42:48;1.30;;;0.22;;
35223;SDS011;21367;51.930;8.112;2023-12-22T12:47:55;1.95;;;0.60;;
35223;SDS011;21367;51.930;8.112;2023-12-22T12:53:02;1.02;;;0.40;;
35223;SDS011;21367;51.930;8.112;2023-12-22T12:58:12;6.90;;;0.65;;
35223;SDS011;21367;51.930;8.112;2023-12-22T13:03:15;3.72;;;0.30;;
35223;SDS011;21367;51.930;8.112;2023-12-22T13:08:22;0.85;;;0.40;;
35223;SDS011;21367;51.930;8.112;2023-12-22T13:13:25;1.08;;;0.45;;
35223;SDS011;21367;51.930;8.112;2023-12-22T13:18:29;3.30;;;0.50;;
35223;SDS011;21367;51.930;8.112;2023-12-22T13:23:35;6.65;;;0.85;;
35223;SDS011;21367;51.930;8.112;2023-12-22T13:28:39;1.17;;;0.30;;
35223;SDS011;21367;51.930;8.112;2023-12-22T13:33:42;6.38;;;0.60;;
35223;SDS011;21367;51.930;8.112;2023-12-22T13:38:49;0.73;;;0.38;;
35223;SDS011;21367;51.930;8.112;2023-12-22T13:43:53;2.25;;;0.40;;
35223;SDS011;21367;51.930;8.112;2023-12-22T13:48:58;8.00;;;1.48;;
35223;SDS011;21367;51.930;8.112;2023-12-22T13:54:05;4.90;;;0.90;;
35223;SDS011;21367;51.930;8.112;2023-12-22T13:59:08;4.72;;;1.33;;
35223;SDS011;21367;51.930;8.112;2023-12-22T14:04:12;7.28;;;1.63;;
35223;SDS011;21367;51.930;8.112;2023-12-22T14:09:18;6.45;;;0.98;;
35223;SDS011;21367;51.930;8.112;2023-12-22T14:14:25;2.60;;;1.02;;
35223;SDS011;21367;51.930;8.112;2023-12-22T14:19:28;3.33;;;0.95;;
35223;SDS011;21367;51.930;8.112;2023-12-22T14:24:34;4.88;;;0.52;;
35223;SDS011;21367;51.930;8.112;2023-12-22T14:29:38;2.83;;;0.40;;
35223;SDS011;21367;51.930;8.112;2023-12-22T14:34:42;5.00;;;0.50;;
35223;SDS011;21367;51.930;8.112;2023-12-22T14:39:48;2.28;;;0.65;;
35223;SDS011;21367;51.930;8.112;2023-12-22T14:49:55;2.10;;;0.52;;
35223;SDS011;21367;51.930;8.112;2023-12-22T14:55:06;2.15;;;0.52;;
35223;SDS011;21367;51.930;8.112;2023-12-22T15:00:11;4.00;;;0.60;;
35223;SDS011;21367;51.930;8.112;2023-12-22T15:05:16;1.90;;;0.88;;
35223;SDS011;21367;51.930;8.112;2023-12-22T15:10:23;1.98;;;0.80;;
35223;SDS011;21367;51.930;8.112;2023-12-22T15:15:26;1.67;;;0.63;;
35223;SDS011;21367;51.930;8.112;2023-12-22T15:20:30;3.40;;;0.32;;
35223;SDS011;21367;51.930;8.112;2023-12-22T15:25:36;4.82;;;0.57;;
35223;SDS011;21367;51.930;8.112;2023-12-22T15:30:40;2.42;;;0.50;;
35223;SDS011;21367;51.930;8.112;2023-12-22T15:35:43;5.50;;;0.50;;
35223;SDS011;21367;51.930;8.112;2023-12-22T15:40:50;4.78;;;0.63;;
35223;SDS011;21367;51.930;8.112;2023-12-22T15:45:53;3.17;;;0.70;;
35223;SDS011;21367;51.930;8.112;2023-12-22T15:50:57;6.68;;;0.65;;
35223;SDS011;21367;51.930;8.112;2023-12-22T15:56:06;3.03;;;0.65;;
35223;SDS011;21367;51.930;8.112;2023-12-22T16:01:12;4.47;;;0.70;;
35223;SDS011;21367;51.930;8.112;2023-12-22T16:06:17;3.35;;;0.68;;
35223;SDS011;21367;51.930;8.112;2023-12-22T16:11:23;2.95;;;0.70;;
35223;SDS011;21367;51.930;8.112;2023-12-22T16:16:27;3.50;;;0.68;;
35223;SDS011;21367;51.930;8.112;2023-12-22T16:21:31;1.95;;;0.35;;
35223;SDS011;21367;51.930;8.112;2023-12-22T16:26:37;5.20;;;0.77;;
35223;SDS011;21367;51.930;8.112;2023-12-22T16:31:40;2.20;;;0.60;;
35223;SDS011;21367;51.930;8.112;2023-12-22T16:36:44;2.53;;;0.70;;
35223;SDS011;21367;51.930;8.112;2023-12-22T16:41:51;2.90;;;0.70;;
35223;SDS011;21367;51.930;8.112;2023-12-22T16:46:54;3.17;;;0.70;;
35223;SDS011;21367;51.930;8.112;2023-12-22T16:51:58;2.05;;;0.60;;
35223;SDS011;21367;51.930;8.112;2023-12-22T16:57:04;2.20;;;0.40;;
35223;SDS011;21367;51.930;8.112;2023-12-22T17:02:08;4.13;;;0.43;;
35223;SDS011;21367;51.930;8.112;2023-12-22T17:07:11;2.45;;;0.40;;
35223;SDS011;21367;51.930;8.112;2023-12-22T17:12:17;0.55;;;0.25;;
35223;SDS011;21367;51.930;8.112;2023-12-22T17:17:21;3.47;;;0.50;;
35223;SDS011;21367;51.930;8.112;2023-12-22T17:22:25;3.13;;;0.68;;
35223;SDS011;21367;51.930;8.112;2023-12-22T17:27:31;2.10;;;0.40;;
35223;SDS011;21367;51.930;8.112;2023-12-22T17:32:34;1.80;;;0.80;;
35223;SDS011;21367;51.930;8.112;2023-12-22T17:37:38;1.15;;;0.30;;
35223;SDS011;21367;51.930;8.112;2023-12-22T17:42:44;0.80;;;0.30;;
35223;SDS011;21367;51.930;8.112;2023-12-22T17:47:49;1.63;;;0.30;;
35223;SDS011;21367;51.930;8.112;2023-12-22T17:52:53;3.10;;;0.73;;
35223;SDS011;21367;51.930;8.112;2023-12-22T17:57:59;0.90;;;0.32;;
35223;SDS011;21367;51.930;8.112;2023-12-22T18:03:03;4.32;;;0.60;;
35223;SDS011;21367;51.930;8.112;2023-12-22T18:08:08;0.82;;;0.30;;
35223;SDS011;21367;51.930;8.112;2023-12-22T18:13:15;1.35;;;0.52;;
35223;SDS011;21367;51.930;8.112;2023-12-22T18:18:18;2.05;;;0.47;;
35223;SDS011;21367;51.930;8.112;2023-12-22T18:23:22;5.82;;;0.55;;
35223;SDS011;21367;51.930;8.112;2023-12-22T18:28:28;6.30;;;0.80;;
35223;SDS011;21367;51.930;8.112;2023-12-22T18:33:31;1.45;;;0.40;;
35223;SDS011;21367;51.930;8.112;2023-12-22T18:38:35;5.68;;;0.60;;
35223;SDS011;21367;51.930;8.112;2023-12-22T18:43:41;2.78;;;0.32;;
35223;SDS011;21367;51.930;8.112;2023-12-22T18:48:44;6.28;;;0.88;;
35223;SDS011;21367;51.930;8.112;2023-12-22T18:53:48;11.85;;;0.88;;
35223;SDS011;21367;51.930;8.112;2023-12-22T18:58:54;10.52;;;0.95;;
35223;SDS011;21367;51.930;8.112;2023-12-22T19:03:58;3.75;;;0.65;;
35223;SDS011;21367;51.930;8.112;2023-12-22T19:09:01;7.75;;;1.00;;
35223;SDS011;21367;51.930;8.112;2023-12-22T19:14:08;15.23;;;1.60;;
35223;SDS011;21367;51.930;8.112;2023-12-22T19:19:13;8.18;;;2.13;;
35223;SDS011;21367;51.930;8.112;2023-12-22T19:24:17;7.22;;;2.38;;
35223;SDS011;21367;51.930;8.112;2023-12-22T19:29:23;20.35;;;1.40;;
35223;SDS011;21367;51.930;8.112;2023-12-22T19:34:27;5.68;;;1.73;;
35223;SDS011;21367;51.930;8.112;2023-12-22T19:39:30;12.90;;;1.70;;
35223;SDS011;21367;51.930;8.112;2023-12-22T19:44:36;11.93;;;2.00;;
35223;SDS011;21367;51.930;8.112;2023-12-22T19:49:40;15.85;;;1.73;;
35223;SDS011;21367;51.930;8.112;2023-12-22T19:54:45;12.52;;;1.60;;
35223;SDS011;21367;51.930;8.112;2023-12-22T19:59:51;11.40;;;1.25;;
35223;SDS011;21367;51.930;8.112;2023-12-22T20:04:54;13.00;;;1.80;;
35223;SDS011;21367;51.930;8.112;2023-12-22T20:09:58;13.90;;;1.27;;
35223;SDS011;21367;51.930;8.112;2023-12-22T20:15:07;7.67;;;1.10;;
35223;SDS011;21367;51.930;8.112;2023-12-22T20:20:11;15.90;;;1.92;;
35223;SDS011;21367;51.930;8.112;2023-12-22T20:25:15;6.65;;;1.10;;
35223;SDS011;21367;51.930;8.112;2023-12-22T20:30:21;17.17;;;1.38;;
35223;SDS011;21367;51.930;8.112;2023-12-22T20:35:24;11.15;;;1.00;;
35223;SDS011;21367;51.930;8.112;2023-12-22T20:40:28;7.22;;;1.23;;
35223;SDS011;21367;51.930;8.112;2023-12-22T20:45:34;10.68;;;1.23;;
35223;SDS011;21367;51.930;8.112;2023-12-22T20:50:37;9.07;;;1.02;;
35223;SDS011;21367;51.930;8.112;2023-12-22T20:55:41;13.27;;;1.10;;
35223;SDS011;21367;51.930;8.112;2023-12-22T21:00:47;16.83;;;1.40;;
35223;SDS011;21367;51.930;8.112;2023-12-22T21:05:51;10.15;;;1.27;;
35223;SDS011;21367;51.930;8.112;2023-12-22T21:16:06;12.70;;;1.13;;
35223;SDS011;21367;51.930;8.112;2023-12-22T21:21:10;8.68;;;1.15;;
35223;SDS011;21367;51.930;8.112;2023-12-22T21:26:17;11.00;;;1.30;;
35223;SDS011;21367;51.930;8.112;2023-12-22T21:31:26;20.73;;;2.58;;
35223;SDS011;21367;51.930;8.112;2023-12-22T21:36:29;19.05;;;2.05;;
35223;SDS011;21367;51.930;8.112;2023-12-22T21:41:34;15.13;;;1.58;;
35223;SDS011;21367;51.930;8.112;2023-12-22T21:46:44;21.13;;;2.03;;
35223;SDS011;21367;51.930;8.112;2023-12-22T21:51:47;16.38;;;2.08;;
35223;SDS011;21367;51.930;8.112;2023-12-22T21:56:51;11.98;;;1.40;;
35223;SDS011;21367;51.930;8.112;2023-12-22T22:01:58;17.80;;;1.42;;
35223;SDS011;21367;51.930;8.112;2023-12-22T22:07:03;12.07;;;1.08;;
35223;SDS011;21367;51.930;8.112;2023-12-22T22:12:06;11.35;;;1.33;;
35223;SDS011;21367;51.930;8.112;2023-12-22T22:17:13;15.27;;;1.58;;
35223;SDS011;21367;51.930;8.112;2023-12-22T22:27:20;24.88;;;2.97;;
35223;SDS011;21367;51.930;8.112;2023-12-22T22:32:26;16.95;;;1.77;;
35223;SDS011;21367;51.930;8.112;2023-12-22T22:37:30;12.23;;;1.75;;
35223;SDS011;21367;51.930;8.112;2023-12-22T22:42:34;18.00;;;1.90;;
35223;SDS011;21367;51.930;8.112;2023-12-22T22:47:40;17.67;;;1.80;;
35223;SDS011;21367;51.930;8.112;2023-12-22T22:52:44;12.75;;;3.03;;
35223;SDS011;21367;51.930;8.112;2023-12-22T22:57:48;15.13;;;1.45;;
35223;SDS011;21367;51.930;8.112;2023-12-22T23:02:54;18.92;;;2.50;;
35223;SDS011;21367;51.930;8.112;2023-12-22T23:07:57;8.95;;;1.30;;
35223;SDS011;21367;51.930;8.112;2023-12-22T23:13:01;12.27;;;1.42;;
35223;SDS011;21367;51.930;8.112;2023-12-22T23:18:07;16.50;;;1.80;;
35223;SDS011;21367;51.930;8.112;2023-12-22T23:28:14;15.10;;;1.60;;
35223;SDS011;21367;51.930;8.112;2023-12-22T23:33:20;18.02;;;1.35;;
35223;SDS011;21367;51.930;8.112;2023-12-22T23:38:24;12.40;;;1.40;;
35223;SDS011;21367;51.930;8.112;2023-12-22T23:43:27;12.20;;;1.52;;
35223;SDS011;21367;51.930;8.112;2023-12-22T23:48:33;11.55;;;1.42;;
35223;SDS011;21367;51.930;8.112;2023-12-22T23:53:37;16.73;;;1.25;;
35223;SDS011;21367;51.930;8.112;2023-12-22T23:58:40;11.15;;;1.55;;
